sensor_id;sensor_type;location;lat;lon;timestamp;pressure;altitude;pressure_sealevel;temperature;humidity
6343;BME280;3204;42.698;23.298;2022-10-16T00:01:13;95580.44;;;10.48;83.76
6343;BME280;3204;42.698;23.298;2022-10-16T00:03:41;95582.03;;;10.49;83.62
6343;BME280;3204;42.698;23.298;2022-10-16T00:06:07;95584.13;;;10.52;83.08
6343;BME280;3204;42.698;23.298;2022-10-16T00:08:33;95588.84;;;10.47;83.29
6343;BME280;3204;42.698;23.298;2022-10-16T00:11:30;95596.31;;;10.36;83.85
6343;BME280;3204;42.698;23.298;2022-10-16T00:13:58;95595.19;;;10.37;83.37
6343;BME280;3204;42.698;23.298;2022-10-16T00:16:25;95593.59;;;10.36;83.67
6343;BME280;3204;42.698;23.298;2022-10-16T00:18:51;95594.47;;;10.32;83.71
6343;BME280;3204;42.698;23.298;2022-10-16T00:21:19;95608.09;;;10.27;84.33
6343;BME280;3204;42.698;23.298;2022-10-16T00:23:45;95597.00;;;10.23;84.19
6343;BME280;3204;42.698;23.298;2022-10-16T00:26:16;95603.81;;;10.21;84.00
6343;BME280;3204;42.698;23.298;2022-10-16T00:28:42;95606.81;;;10.19;83.72
6343;BME280;3204;42.698;23.298;2022-10-16T00:31:09;95608.75;;;10.19;83.87
6343;BME280;3204;42.698;23.298;2022-10-16T00:33:36;95612.84;;;10.16;83.88
6343;BME280;3204;42.698;23.298;2022-10-16T00:36:03;95614.22;;;10.14;84.05
6343;BME280;3204;42.698;23.298;2022-10-16T00:38:30;95608.81;;;10.14;83.67
6343;BME280;3204;42.698;23.298;2022-10-16T00:40:56;95609.66;;;10.09;84.03
6343;BME280;3204;42.698;23.298;2022-10-16T00:43:36;95608.03;;;10.08;84.00
6343;BME280;3204;42.698;23.298;2022-10-16T00:46:27;95608.06;;;10.03;84.39
6343;BME280;3204;42.698;23.298;2022-10-16T00:49:02;95599.94;;;10.03;84.08
6343;BME280;3204;42.698;23.298;2022-10-16T00:51:33;95596.19;;;9.99;84.58
6343;BME280;3204;42.698;23.298;2022-10-16T00:54:00;95602.78;;;9.93;84.61
6343;BME280;3204;42.698;23.298;2022-10-16T00:56:26;95598.19;;;9.94;84.09
6343;BME280;3204;42.698;23.298;2022-10-16T00:58:51;95602.50;;;9.95;84.07
6343;BME280;3204;42.698;23.298;2022-10-16T01:01:17;95605.25;;;9.90;84.34
6343;BME280;3204;42.698;23.298;2022-10-16T01:03:43;95603.19;;;9.82;84.27
6343;BME280;3204;42.698;23.298;2022-10-16T01:06:23;95603.66;;;9.89;84.18
6343;BME280;3204;42.698;23.298;2022-10-16T01:09:40;95608.03;;;9.85;84.43
6343;BME280;3204;42.698;23.298;2022-10-16T01:17:53;95607.50;;;9.83;84.74
6343;BME280;3204;42.698;23.298;2022-10-16T01:20:30;95606.72;;;9.82;84.88
6343;BME280;3204;42.698;23.298;2022-10-16T01:23:25;95606.16;;;9.80;84.63
6343;BME280;3204;42.698;23.298;2022-10-16T01:28:36;95596.72;;;9.78;84.83
6343;BME280;3204;42.698;23.298;2022-10-16T01:31:04;95601.09;;;9.74;84.61
6343;BME280;3204;42.698;23.298;2022-10-16T01:33:40;95601.69;;;9.71;84.68
6343;BME280;3204;42.698;23.298;2022-10-16T01:36:14;95602.47;;;9.71;84.92
6343;BME280;3204;42.698;23.298;2022-10-16T01:38:43;95607.53;;;9.78;84.28
6343;BME280;3204;42.698;23.298;2022-10-16T01:41:17;95605.66;;;9.78;84.60
6343;BME280;3204;42.698;23.298;2022-10-16T01:43:58;95601.56;;;9.81;84.59
6343;BME280;3204;42.698;23.298;2022-10-16T01:46:27;95612.34;;;9.86;84.12
6343;BME280;3204;42.698;23.298;2022-10-16T01:48:55;95613.13;;;9.86;84.55
6343;BME280;3204;42.698;23.298;2022-10-16T01:51:21;95613.94;;;9.87;84.04
6343;BME280;3204;42.698;23.298;2022-10-16T01:53:53;95617.19;;;9.89;83.69
6343;BME280;3204;42.698;23.298;2022-10-16T01:56:20;95618.31;;;9.83;84.21
6343;BME280;3204;42.698;23.298;2022-10-16T01:59:04;95621.31;;;9.81;84.07
6343;BME280;3204;42.698;23.298;2022-10-16T02:01:33;95624.22;;;9.90;83.81
6343;BME280;3204;42.698;23.298;2022-10-16T02:04:04;95618.28;;;9.88;83.23
6343;BME280;3204;42.698;23.298;2022-10-16T02:06:33;95624.56;;;9.83;83.55
6343;BME280;3204;42.698;23.298;2022-10-16T02:08:59;95624.28;;;9.85;83.46
6343;BME280;3204;42.698;23.298;2022-10-16T02:11:24;95634.06;;;9.81;83.63
6343;BME280;3204;42.698;23.298;2022-10-16T02:13:54;95633.91;;;9.72;83.79
6343;BME280;3204;42.698;23.298;2022-10-16T02:16:23;95639.88;;;9.69;83.37
6343;BME280;3204;42.698;23.298;2022-10-16T02:18:57;95640.50;;;9.61;83.81
6343;BME280;3204;42.698;23.298;2022-10-16T02:21:28;95641.31;;;9.62;83.96
6343;BME280;3204;42.698;23.298;2022-10-16T02:27:04;95647.34;;;9.54;84.09
6343;BME280;3204;42.698;23.298;2022-10-16T02:29:34;95651.19;;;9.48;84.03
6343;BME280;3204;42.698;23.298;2022-10-16T02:32:05;95653.94;;;9.43;84.43
6343;BME280;3204;42.698;23.298;2022-10-16T02:34:33;95648.84;;;9.36;84.52
6343;BME280;3204;42.698;23.298;2022-10-16T02:37:00;95644.53;;;9.35;84.89
6343;BME280;3204;42.698;23.298;2022-10-16T02:39:28;95643.44;;;9.36;84.55
6343;BME280;3204;42.698;23.298;2022-10-16T02:41:54;95644.31;;;9.27;85.20
6343;BME280;3204;42.698;23.298;2022-10-16T02:44:19;95646.75;;;9.28;85.22
6343;BME280;3204;42.698;23.298;2022-10-16T02:46:45;95650.28;;;9.29;84.66
6343;BME280;3204;42.698;23.298;2022-10-16T02:49:10;95656.00;;;9.22;84.92
6343;BME280;3204;42.698;23.298;2022-10-16T02:51:36;95654.16;;;9.18;84.91
6343;BME280;3204;42.698;23.298;2022-10-16T02:54:02;95659.56;;;9.18;84.96
6343;BME280;3204;42.698;23.298;2022-10-16T02:56:27;95661.41;;;9.22;84.59
6343;BME280;3204;42.698;23.298;2022-10-16T02:58:53;95667.16;;;9.16;85.54
6343;BME280;3204;42.698;23.298;2022-10-16T03:01:18;95661.81;;;9.06;85.04
6343;BME280;3204;42.698;23.298;2022-10-16T03:03:44;95665.03;;;9.08;85.50
6343;BME280;3204;42.698;23.298;2022-10-16T03:06:09;95660.13;;;9.15;85.36
6343;BME280;3204;42.698;23.298;2022-10-16T03:08:35;95663.84;;;9.24;84.80
6343;BME280;3204;42.698;23.298;2022-10-16T03:11:00;95665.75;;;9.23;84.65
6343;BME280;3204;42.698;23.298;2022-10-16T03:13:26;95666.50;;;9.29;84.82
6343;BME280;3204;42.698;23.298;2022-10-16T03:15:51;95663.06;;;9.18;85.30
6343;BME280;3204;42.698;23.298;2022-10-16T03:18:17;95671.44;;;9.22;85.22
6343;BME280;3204;42.698;23.298;2022-10-16T03:20:43;95671.19;;;9.18;85.27
6343;BME280;3204;42.698;23.298;2022-10-16T03:23:09;95675.22;;;9.21;84.44
6343;BME280;3204;42.698;23.298;2022-10-16T03:25:34;95672.53;;;9.21;84.72
6343;BME280;3204;42.698;23.298;2022-10-16T03:28:00;95675.22;;;9.21;84.78
6343;BME280;3204;42.698;23.298;2022-10-16T03:30:26;95675.78;;;9.23;85.02
6343;BME280;3204;42.698;23.298;2022-10-16T03:32:51;95674.13;;;9.22;85.00
6343;BME280;3204;42.698;23.298;2022-10-16T03:35:21;95679.59;;;9.17;84.73
6343;BME280;3204;42.698;23.298;2022-10-16T03:37:47;95682.00;;;9.18;85.23
6343;BME280;3204;42.698;23.298;2022-10-16T03:40:12;95677.16;;;9.20;84.26
6343;BME280;3204;42.698;23.298;2022-10-16T03:42:38;95680.16;;;9.14;84.07
6343;BME280;3204;42.698;23.298;2022-10-16T03:45:04;95678.31;;;9.04;84.82
6343;BME280;3204;42.698;23.298;2022-10-16T03:47:30;95673.81;;;8.95;85.34
6343;BME280;3204;42.698;23.298;2022-10-16T03:49:58;95671.88;;;8.95;84.99
6343;BME280;3204;42.698;23.298;2022-10-16T03:52:24;95663.03;;;8.90;84.80
6343;BME280;3204;42.698;23.298;2022-10-16T03:54:49;95668.97;;;8.87;84.93
6343;BME280;3204;42.698;23.298;2022-10-16T03:57:15;95665.19;;;8.88;84.85
6343;BME280;3204;42.698;23.298;2022-10-16T03:59:40;95666.28;;;8.87;85.44
6343;BME280;3204;42.698;23.298;2022-10-16T04:02:06;95672.81;;;8.81;84.94
6343;BME280;3204;42.698;23.298;2022-10-16T04:04:32;95673.91;;;8.80;85.49
6343;BME280;3204;42.698;23.298;2022-10-16T04:06:57;95681.19;;;8.79;85.24
6343;BME280;3204;42.698;23.298;2022-10-16T04:09:22;95678.25;;;8.76;85.45
6343;BME280;3204;42.698;23.298;2022-10-16T04:11:48;95677.97;;;8.72;85.26
6343;BME280;3204;42.698;23.298;2022-10-16T04:14:14;95677.16;;;8.77;85.59
6343;BME280;3204;42.698;23.298;2022-10-16T04:16:39;95669.59;;;8.74;85.47
6343;BME280;3204;42.698;23.298;2022-10-16T04:19:05;95673.59;;;8.81;86.08
6343;BME280;3204;42.698;23.298;2022-10-16T04:21:31;95680.38;;;8.79;85.52
6343;BME280;3204;42.698;23.298;2022-10-16T04:23:56;95663.63;;;8.77;85.07
6343;BME280;3204;42.698;23.298;2022-10-16T04:26:22;95676.03;;;8.83;85.18
6343;BME280;3204;42.698;23.298;2022-10-16T04:28:47;95685.47;;;8.85;84.62
6343;BME280;3204;42.698;23.298;2022-10-16T04:31:13;95682.78;;;8.85;84.75
6343;BME280;3204;42.698;23.298;2022-10-16T04:33:38;95680.91;;;8.86;84.62
6343;BME280;3204;42.698;23.298;2022-10-16T04:36:04;95689.00;;;8.86;84.63
6343;BME280;3204;42.698;23.298;2022-10-16T04:38:30;95686.28;;;8.91;84.37
6343;BME280;3204;42.698;23.298;2022-10-16T04:40:55;95691.13;;;8.89;84.64
6343;BME280;3204;42.698;23.298;2022-10-16T04:43:21;95691.75;;;8.81;83.90
6343;BME280;3204;42.698;23.298;2022-10-16T04:45:47;95694.72;;;8.79;84.15
6343;BME280;3204;42.698;23.298;2022-10-16T04:48:15;95692.84;;;8.75;84.46
6343;BME280;3204;42.698;23.298;2022-10-16T04:50:41;95700.94;;;8.75;84.48
6343;BME280;3204;42.698;23.298;2022-10-16T04:53:06;95710.44;;;8.72;84.78
6343;BME280;3204;42.698;23.298;2022-10-16T04:55:32;95704.00;;;8.68;84.59
6343;BME280;3204;42.698;23.298;2022-10-16T04:57:57;95710.16;;;8.74;84.98
6343;BME280;3204;42.698;23.298;2022-10-16T05:00:23;95713.41;;;8.76;84.63
6343;BME280;3204;42.698;23.298;2022-10-16T05:02:52;95719.88;;;8.75;84.15
6343;BME280;3204;42.698;23.298;2022-10-16T05:05:17;95716.38;;;8.74;84.80
6343;BME280;3204;42.698;23.298;2022-10-16T05:07:48;95714.78;;;8.73;85.07
6343;BME280;3204;42.698;23.298;2022-10-16T05:10:15;95720.47;;;8.72;84.72
6343;BME280;3204;42.698;23.298;2022-10-16T05:12:40;95719.38;;;8.68;84.78
6343;BME280;3204;42.698;23.298;2022-10-16T05:15:06;95725.09;;;8.61;84.91
6343;BME280;3204;42.698;23.298;2022-10-16T05:17:32;95720.81;;;8.55;85.42
6343;BME280;3204;42.698;23.298;2022-10-16T05:19:57;95724.56;;;8.64;86.10
6343;BME280;3204;42.698;23.298;2022-10-16T05:22:23;95720.19;;;8.73;87.34
6343;BME280;3204;42.698;23.298;2022-10-16T05:24:48;95724.16;;;8.86;88.96
6343;BME280;3204;42.698;23.298;2022-10-16T05:27:14;95718.13;;;9.04;89.22
6343;BME280;3204;42.698;23.298;2022-10-16T05:29:48;95730.31;;;9.40;87.32
6343;BME280;3204;42.698;23.298;2022-10-16T05:32:15;95741.91;;;9.79;85.55
6343;BME280;3204;42.698;23.298;2022-10-16T05:34:41;95744.09;;;10.10;83.73
6343;BME280;3204;42.698;23.298;2022-10-16T05:37:07;95741.28;;;10.44;83.09
6343;BME280;3204;42.698;23.298;2022-10-16T05:39:32;95741.81;;;10.69;81.41
6343;BME280;3204;42.698;23.298;2022-10-16T05:41:58;95747.25;;;10.88;80.45
6343;BME280;3204;42.698;23.298;2022-10-16T05:44:24;95755.16;;;11.08;78.83
6343;BME280;3204;42.698;23.298;2022-10-16T05:46:49;95755.41;;;10.88;78.13
6343;BME280;3204;42.698;23.298;2022-10-16T05:49:15;95757.88;;;10.66;78.67
6343;BME280;3204;42.698;23.298;2022-10-16T05:51:41;95755.91;;;10.48;78.97
6343;BME280;3204;42.698;23.298;2022-10-16T05:54:07;95761.00;;;10.26;79.33
6343;BME280;3204;42.698;23.298;2022-10-16T05:56:32;95764.09;;;10.14;80.14
6343;BME280;3204;42.698;23.298;2022-10-16T05:58:58;95773.91;;;10.10;80.41
6343;BME280;3204;42.698;23.298;2022-10-16T06:01:23;95768.03;;;9.98;80.63
6343;BME280;3204;42.698;23.298;2022-10-16T06:03:52;95764.31;;;9.89;80.74
6343;BME280;3204;42.698;23.298;2022-10-16T06:06:25;95768.88;;;9.94;81.67
6343;BME280;3204;42.698;23.298;2022-10-16T06:08:52;95772.94;;;9.96;82.24
6343;BME280;3204;42.698;23.298;2022-10-16T06:11:20;95777.47;;;10.01;82.29
6343;BME280;3204;42.698;23.298;2022-10-16T06:13:51;95778.91;;;9.93;82.05
6343;BME280;3204;42.698;23.298;2022-10-16T06:16:17;95780.78;;;9.93;82.44
6343;BME280;3204;42.698;23.298;2022-10-16T06:18:42;95781.34;;;9.95;82.42
6343;BME280;3204;42.698;23.298;2022-10-16T06:21:13;95780.75;;;9.98;82.41
6343;BME280;3204;42.698;23.298;2022-10-16T06:23:40;95778.81;;;10.08;85.66
6343;BME280;3204;42.698;23.298;2022-10-16T06:26:11;95790.88;;;10.96;95.49
6343;BME280;3204;42.698;23.298;2022-10-16T06:28:37;95780.06;;;11.70;95.06
6343;BME280;3204;42.698;23.298;2022-10-16T06:31:05;95788.25;;;12.34;94.68
6343;BME280;3204;42.698;23.298;2022-10-16T06:33:31;95785.19;;;12.95;93.44
6343;BME280;3204;42.698;23.298;2022-10-16T06:36:04;95810.00;;;13.34;79.26
6343;BME280;3204;42.698;23.298;2022-10-16T06:38:30;95815.97;;;13.36;76.10
6343;BME280;3204;42.698;23.298;2022-10-16T06:40:56;95808.00;;;13.39;75.08
6343;BME280;3204;42.698;23.298;2022-10-16T06:43:22;95815.50;;;13.69;74.24
6343;BME280;3204;42.698;23.298;2022-10-16T06:45:54;95831.25;;;14.08;72.64
6343;BME280;3204;42.698;23.298;2022-10-16T06:48:20;95832.59;;;14.19;70.26
6343;BME280;3204;42.698;23.298;2022-10-16T06:51:22;95834.44;;;14.23;69.67
6343;BME280;3204;42.698;23.298;2022-10-16T06:53:49;95834.75;;;14.22;68.82
6343;BME280;3204;42.698;23.298;2022-10-16T06:56:26;95838.78;;;14.77;68.46
6343;BME280;3204;42.698;23.298;2022-10-16T06:58:52;95842.75;;;14.93;67.88
6343;BME280;3204;42.698;23.298;2022-10-16T07:01:20;95851.53;;;15.51;66.46
6343;BME280;3204;42.698;23.298;2022-10-16T07:03:46;95842.31;;;15.38;64.75
6343;BME280;3204;42.698;23.298;2022-10-16T07:06:14;95841.88;;;15.53;65.32
6343;BME280;3204;42.698;23.298;2022-10-16T07:08:43;95845.28;;;15.20;64.25
6343;BME280;3204;42.698;23.298;2022-10-16T07:11:14;95846.28;;;14.93;65.44
6343;BME280;3204;42.698;23.298;2022-10-16T07:13:42;95843.16;;;14.78;66.08
6343;BME280;3204;42.698;23.298;2022-10-16T07:16:14;95848.81;;;14.90;66.13
6343;BME280;3204;42.698;23.298;2022-10-16T07:18:41;95842.50;;;14.50;66.62
6343;BME280;3204;42.698;23.298;2022-10-16T07:21:09;95843.41;;;14.68;66.75
6343;BME280;3204;42.698;23.298;2022-10-16T07:23:36;95832.47;;;14.98;65.13
6343;BME280;3204;42.698;23.298;2022-10-16T07:26:02;95845.09;;;14.86;65.24
6343;BME280;3204;42.698;23.298;2022-10-16T07:28:28;95846.06;;;14.81;65.77
6343;BME280;3204;42.698;23.298;2022-10-16T07:30:54;95843.41;;;14.98;65.57
6343;BME280;3204;42.698;23.298;2022-10-16T07:33:20;95844.03;;;14.95;65.45
6343;BME280;3204;42.698;23.298;2022-10-16T07:35:50;95843.69;;;15.58;64.41
6343;BME280;3204;42.698;23.298;2022-10-16T07:38:15;95847.56;;;15.82;63.56
6343;BME280;3204;42.698;23.298;2022-10-16T07:40:41;95844.88;;;15.99;62.45
6343;BME280;3204;42.698;23.298;2022-10-16T07:43:07;95842.13;;;15.99;62.21
6343;BME280;3204;42.698;23.298;2022-10-16T07:45:32;95853.03;;;15.74;62.57
6343;BME280;3204;42.698;23.298;2022-10-16T07:47:58;95840.53;;;15.98;62.57
6343;BME280;3204;42.698;23.298;2022-10-16T07:50:24;95843.03;;;15.61;62.48
6343;BME280;3204;42.698;23.298;2022-10-16T07:52:49;95843.38;;;15.76;62.42
6343;BME280;3204;42.698;23.298;2022-10-16T07:55:15;95841.97;;;16.38;61.60
6343;BME280;3204;42.698;23.298;2022-10-16T07:57:40;95846.34;;;16.57;60.93
6343;BME280;3204;42.698;23.298;2022-10-16T08:00:06;95850.19;;;16.64;61.08
6343;BME280;3204;42.698;23.298;2022-10-16T08:02:32;95851.06;;;17.02;60.08
6343;BME280;3204;42.698;23.298;2022-10-16T08:04:57;95861.03;;;17.15;59.65
6343;BME280;3204;42.698;23.298;2022-10-16T08:07:23;95843.53;;;17.28;59.38
6343;BME280;3204;42.698;23.298;2022-10-16T08:09:49;95839.16;;;17.73;58.50
6343;BME280;3204;42.698;23.298;2022-10-16T08:12:16;95849.88;;;18.36;57.04
6343;BME280;3204;42.698;23.298;2022-10-16T08:14:42;95845.53;;;18.35;56.23
6343;BME280;3204;42.698;23.298;2022-10-16T08:17:08;95847.72;;;18.62;56.61
6343;BME280;3204;42.698;23.298;2022-10-16T08:19:33;95846.00;;;19.23;54.47
6343;BME280;3204;42.698;23.298;2022-10-16T08:22:00;95844.19;;;19.75;53.43
6343;BME280;3204;42.698;23.298;2022-10-16T08:24:26;95849.69;;;19.51;52.57
6343;BME280;3204;42.698;23.298;2022-10-16T08:26:55;95839.59;;;18.98;54.24
6343;BME280;3204;42.698;23.298;2022-10-16T08:29:20;95830.72;;;18.81;54.70
6343;BME280;3204;42.698;23.298;2022-10-16T08:31:46;95831.56;;;17.99;55.81
6343;BME280;3204;42.698;23.298;2022-10-16T08:34:11;95829.53;;;17.88;56.64
6343;BME280;3204;42.698;23.298;2022-10-16T08:36:37;95838.47;;;18.26;55.26
6343;BME280;3204;42.698;23.298;2022-10-16T08:39:03;95834.69;;;17.89;55.90
6343;BME280;3204;42.698;23.298;2022-10-16T08:44:35;95831.97;;;17.60;57.85
6343;BME280;3204;42.698;23.298;2022-10-16T08:47:20;95828.75;;;17.87;56.82
6343;BME280;3204;42.698;23.298;2022-10-16T08:49:56;95838.72;;;18.74;55.22
6343;BME280;3204;42.698;23.298;2022-10-16T08:52:22;95840.41;;;19.11;54.53
6343;BME280;3204;42.698;23.298;2022-10-16T08:54:50;95839.03;;;18.93;53.98
6343;BME280;3204;42.698;23.298;2022-10-16T08:57:21;95842.69;;;18.97;53.44
6343;BME280;3204;42.698;23.298;2022-10-16T08:59:47;95845.88;;;19.31;53.91
6343;BME280;3204;42.698;23.298;2022-10-16T09:02:26;95843.38;;;19.06;52.85
6343;BME280;3204;42.698;23.298;2022-10-16T09:08:13;95847.41;;;19.77;49.90
6343;BME280;3204;42.698;23.298;2022-10-16T09:16:34;95838.41;;;21.53;45.89
6343;BME280;3204;42.698;23.298;2022-10-16T09:19:22;95840.09;;;21.89;45.80
6343;BME280;3204;42.698;23.298;2022-10-16T09:21:48;95833.56;;;22.47;44.65
6343;BME280;3204;42.698;23.298;2022-10-16T09:24:17;95832.03;;;22.87;43.33
6343;BME280;3204;42.698;23.298;2022-10-16T09:26:44;95843.31;;;22.98;43.06
6343;BME280;3204;42.698;23.298;2022-10-16T09:29:14;95836.47;;;23.11;41.76
6343;BME280;3204;42.698;23.298;2022-10-16T09:31:40;95837.81;;;23.39;41.73
6343;BME280;3204;42.698;23.298;2022-10-16T09:34:32;95838.59;;;22.60;42.65
6343;BME280;3204;42.698;23.298;2022-10-16T09:36:57;95818.16;;;22.30;42.85
6343;BME280;3204;42.698;23.298;2022-10-16T09:39:24;95835.22;;;22.17;42.83
6343;BME280;3204;42.698;23.298;2022-10-16T09:41:50;95831.81;;;21.42;43.75
6343;BME280;3204;42.698;23.298;2022-10-16T09:44:26;95836.41;;;20.52;45.87
6343;BME280;3204;42.698;23.298;2022-10-16T09:47:22;95833.38;;;19.82;47.48
6343;BME280;3204;42.698;23.298;2022-10-16T09:52:21;95818.59;;;19.86;47.84
6343;BME280;3204;42.698;23.298;2022-10-16T09:55:12;95822.06;;;19.47;48.04
6343;BME280;3204;42.698;23.298;2022-10-16T09:57:49;95811.91;;;19.15;49.15
6343;BME280;3204;42.698;23.298;2022-10-16T10:00:18;95820.44;;;19.46;48.41
6343;BME280;3204;42.698;23.298;2022-10-16T10:02:45;95812.63;;;19.84;47.22
6343;BME280;3204;42.698;23.298;2022-10-16T10:05:27;95807.03;;;19.69;47.57
6343;BME280;3204;42.698;23.298;2022-10-16T10:07:58;95811.50;;;19.49;48.42
6343;BME280;3204;42.698;23.298;2022-10-16T10:10:27;95806.59;;;18.98;49.42
6343;BME280;3204;42.698;23.298;2022-10-16T10:12:54;95805.66;;;18.50;50.94
6343;BME280;3204;42.698;23.298;2022-10-16T10:15:21;95799.66;;;18.36;51.40
6343;BME280;3204;42.698;23.298;2022-10-16T10:17:51;95808.25;;;18.26;51.98
6343;BME280;3204;42.698;23.298;2022-10-16T10:22:55;95806.97;;;18.23;52.15
6343;BME280;3204;42.698;23.298;2022-10-16T10:34:02;95789.44;;;17.75;53.11
6343;BME280;3204;42.698;23.298;2022-10-16T10:36:40;95785.06;;;17.74;53.87
6343;BME280;3204;42.698;23.298;2022-10-16T10:39:16;95782.16;;;17.79;54.04
6343;BME280;3204;42.698;23.298;2022-10-16T10:44:40;95776.69;;;17.70;54.17
6343;BME280;3204;42.698;23.298;2022-10-16T10:47:19;95765.25;;;17.48;54.63
6343;BME280;3204;42.698;23.298;2022-10-16T10:52:43;95762.59;;;17.22;55.19
6343;BME280;3204;42.698;23.298;2022-10-16T10:57:59;95767.00;;;17.15;55.35
6343;BME280;3204;42.698;23.298;2022-10-16T11:06:36;95760.75;;;17.06;56.03
6343;BME280;3204;42.698;23.298;2022-10-16T11:09:13;95745.81;;;17.24;55.81
6343;BME280;3204;42.698;23.298;2022-10-16T11:11:51;95744.56;;;17.21;54.47
6343;BME280;3204;42.698;23.298;2022-10-16T11:14:34;95740.97;;;17.29;54.45
6343;BME280;3204;42.698;23.298;2022-10-16T11:19:39;95749.28;;;17.41;53.82
6343;BME280;3204;42.698;23.298;2022-10-16T11:22:19;95742.22;;;17.40;54.27
6343;BME280;3204;42.698;23.298;2022-10-16T11:24:55;95747.69;;;17.40;54.66
6343;BME280;3204;42.698;23.298;2022-10-16T11:30:18;95740.63;;;17.39;54.60
6343;BME280;3204;42.698;23.298;2022-10-16T11:38:27;95737.28;;;17.54;53.37
6343;BME280;3204;42.698;23.298;2022-10-16T11:41:00;95734.13;;;17.64;52.90
